Time;durP1;ratioP1;P1;durP2;ratioP2;P2;SDS_P1;SDS_P2;PMS_P1;PMS_P2;Temp;Humidity;BMP_temperature;BMP_pressure;BME280_temperature;BME280_humidity;BME280_pressure;Samples;Min_cycle;Max_cycle;Signal;HPM_P1;HPM_P2
2022/09/13 00:00:28;;;;;;;3.53;1.40;;;26.50;99.90;;;;;;5034117;28;20498;-69
2022/09/13 00:02:54;;;;;;;4.28;1.60;;;26.40;99.90;;;;;;5023717;28;20507;-69
2022/09/13 00:05:20;;;;;;;6.60;1.83;;;26.40;99.90;;;;;;5035972;28;20039;-69
2022/09/13 00:07:45;;;;;;;3.70;1.60;;;26.40;99.90;;;;;;5040928;28;20037;-69
2022/09/13 00:10:11;;;;;;;7.28;1.50;;;26.40;99.90;;;;;;5037655;28;20099;-69
2022/09/13 00:12:37;;;;;;;4.18;1.30;;;26.30;99.90;;;;;;5037795;28;20033;-69
2022/09/13 00:15:03;;;;;;;5.43;1.50;;;26.30;99.90;;;;;;5036740;28;20037;-69
2022/09/13 00:17:29;;;;;;;4.22;1.60;;;26.20;99.90;;;;;;5035093;28;20116;-69
2022/09/13 00:19:55;;;;;;;3.70;1.70;;;26.20;99.90;;;;;;5038375;28;20037;-70
2022/09/13 00:22:22;;;;;;;3.10;1.60;;;26.20;99.90;;;;;;5036495;28;20462;-70
2022/09/13 00:24:48;;;;;;;3.53;1.48;;;26.00;99.90;;;;;;5036995;28;20033;-69
2022/09/13 00:27:14;;;;;;;3.03;1.50;;;26.00;99.90;;;;;;5036095;28;20266;-69
2022/09/13 00:29:41;;;;;;;3.92;1.65;;;26.10;99.90;;;;;;5032641;28;20028;-70
2022/09/13 00:32:06;;;;;;;4.22;1.70;;;26.00;99.90;;;;;;5021830;28;20039;-69
2022/09/13 00:34:32;;;;;;;3.72;1.73;;;26.00;99.90;;;;;;5038904;28;20666;-69
2022/09/13 00:36:59;;;;;;;3.38;1.63;;;26.00;99.90;;;;;;5038111;28;20031;-68
2022/09/13 00:39:26;;;;;;;3.67;1.90;;;26.00;99.90;;;;;;5036120;28;20134;-71
2022/09/13 00:41:52;;;;;;;4.18;2.10;;;26.00;99.90;;;;;;5039050;28;20866;-69
2022/09/13 00:44:57;;;;;;;4.45;2.20;;;26.00;99.90;;;;;;5032201;28;20041;-69
2022/09/13 00:47:42;;;;;;;3.78;2.03;;;25.90;99.90;;;;;;5037786;28;20435;-68
2022/09/13 00:50:25;;;;;;;7.25;2.10;;;25.80;99.90;;;;;;5025953;28;20404;-69
2022/09/13 00:53:10;;;;;;;5.18;2.33;;;25.80;99.90;;;;;;5033545;28;20030;-69
2022/09/13 00:56:00;;;;;;;6.03;2.53;;;25.70;99.90;;;;;;5034271;28;20037;-69
2022/09/13 00:58:52;;;;;;;5.20;2.30;;;25.80;99.90;;;;;;5034469;28;20048;-69
2022/09/13 01:01:22;;;;;;;5.22;2.20;;;25.80;99.90;;;;;;5041288;28;20053;-69
2022/09/13 01:03:49;;;;;;;8.05;2.60;;;25.80;99.90;;;;;;5039347;28;20037;-71
2022/09/13 01:06:19;;;;;;;4.55;2.47;;;25.80;99.90;;;;;;5032783;28;20190;-69
2022/09/13 01:08:51;;;;;;;6.35;2.38;;;25.70;99.90;;;;;;5037279;28;20400;-70
2022/09/13 01:11:28;;;;;;;4.90;2.25;;;25.60;99.90;;;;;;5036756;28;20040;-69
2022/09/13 01:13:56;;;;;;;6.90;2.58;;;25.60;99.90;;;;;;5038203;28;20044;-70
2022/09/13 01:16:22;;;;;;;5.22;2.83;;;25.60;99.90;;;;;;5043569;28;20381;-69
2022/09/13 01:18:49;;;;;;;8.98;2.47;;;25.60;99.90;;;;;;5035021;28;20056;-70
2022/09/13 01:21:35;;;;;;;8.85;3.33;;;25.60;99.90;;;;;;5042634;28;20143;-69
2022/09/13 01:24:33;;;;;;;4.47;2.28;;;25.60;99.90;;;;;;5036774;28;20495;-69
2022/09/13 01:27:37;;;;;;;4.78;2.47;;;25.60;99.90;;;;;;5017037;28;20025;-68
2022/09/13 01:30:21;;;;;;;6.93;2.50;;;25.60;99.90;;;;;;5031980;28;20076;-68
2022/09/13 01:33:21;;;;;;;6.13;2.33;;;25.60;99.90;;;;;;5037367;28;20029;-69
2022/09/13 01:35:57;;;;;;;8.10;2.35;;;25.70;99.90;;;;;;5035478;28;20113;-70
2022/09/13 01:38:40;;;;;;;6.07;2.47;;;25.70;99.90;;;;;;5033810;28;20120;-69
2022/09/13 01:41:27;;;;;;;5.13;2.30;;;25.60;99.90;;;;;;5043265;28;20131;-69
2022/09/13 01:44:21;;;;;;;2.30;1.88;;;25.70;99.90;;;;;;5005827;28;20029;-70
2022/09/13 01:47:07;;;;;;;4.03;2.30;;;25.70;99.90;;;;;;5031811;28;20176;-69
2022/09/13 01:49:55;;;;;;;5.95;2.40;;;25.70;99.90;;;;;;5020596;28;20037;-69
2022/09/13 01:52:26;;;;;;;3.95;2.20;;;25.70;99.90;;;;;;5033278;28;20034;-69
2022/09/13 01:55:22;;;;;;;4.38;2.20;;;25.60;99.90;;;;;;5033214;28;20084;-68
2022/09/13 01:58:04;;;;;;;8.52;2.80;;;25.60;99.90;;;;;;5032476;28;20561;-69
2022/09/13 02:00:33;;;;;;;;;;;25.60;99.90;;;;;;5034752;28;20029;-70
2022/09/13 02:03:17;;;;;;;6.88;2.50;;;25.60;99.90;;;;;;5040852;28;19913;-69
2022/09/13 02:05:55;;;;;;;7.40;2.78;;;25.60;99.90;;;;;;5033315;28;20025;-70
2022/09/13 02:08:38;;;;;;;5.53;2.40;;;25.60;99.90;;;;;;5030540;28;20073;-69
2022/09/13 02:11:11;;;;;;;6.72;2.70;;;25.60;99.90;;;;;;5047795;28;20036;-69
2022/09/13 02:13:48;;;;;;;6.78;2.67;;;25.60;99.90;;;;;;5024343;28;20086;-71
2022/09/13 02:16:38;;;;;;;8.48;3.00;;;25.60;99.90;;;;;;5042131;28;20076;-70
2022/09/13 02:19:14;;;;;;;8.07;2.72;;;25.60;99.90;;;;;;5037737;28;20110;-70
2022/09/13 02:21:45;;;;;;;8.73;2.75;;;25.60;99.90;;;;;;5036144;28;20470;-69
2022/09/13 02:24:18;;;;;;;5.40;2.50;;;25.70;99.90;;;;;;5033317;28;20037;-70
2022/09/13 02:26:46;;;;;;;6.70;2.50;;;25.70;99.90;;;;;;5036991;28;20057;-69
2022/09/13 02:29:17;;;;;;;7.45;2.63;;;25.80;99.90;;;;;;5034946;28;20044;-70
2022/09/13 02:31:49;;;;;;;6.35;2.67;;;25.80;99.90;;;;;;5039998;28;20595;-69
2022/09/13 02:34:22;;;;;;;7.93;2.55;;;25.80;99.90;;;;;;5008908;28;20037;-68
2022/09/13 02:36:51;;;;;;;4.03;1.88;;;25.80;99.90;;;;;;5035152;28;20068;-69
2022/09/13 02:39:22;;;;;;;6.07;2.38;;;25.80;99.90;;;;;;5039318;28;20048;-69
2022/09/13 02:42:21;;;;;;;5.15;2.22;;;25.70;99.90;;;;;;5039912;28;20033;-69
2022/09/13 02:44:52;;;;;;;6.60;2.50;;;25.70;99.90;;;;;;5036982;28;20040;-69
2022/09/13 02:47:43;;;;;;;9.02;2.25;;;25.70;99.90;;;;;;5036423;28;20053;-69
2022/09/13 02:50:31;;;;;;;6.70;2.33;;;25.70;99.90;;;;;;5025576;28;20037;-71
2022/09/13 02:53:34;;;;;;;9.27;2.22;;;25.60;99.90;;;;;;5030684;28;20060;-71
2022/09/13 02:56:22;;;;;;;10.57;2.42;;;25.60;99.90;;;;;;4994023;28;20030;-70
2022/09/13 02:58:48;;;;;;;9.02;2.30;;;25.70;99.90;;;;;;5034773;28;20060;-70
2022/09/13 03:01:14;;;;;;;7.13;2.00;;;25.70;99.90;;;;;;5034701;28;20026;-70
2022/09/13 03:03:40;;;;;;;7.50;2.25;;;25.60;99.90;;;;;;5036988;28;20044;-69
2022/09/13 03:06:08;;;;;;;9.30;2.10;;;25.70;99.90;;;;;;5034194;28;20038;-69
2022/09/13 03:08:35;;;;;;;11.68;2.67;;;25.60;99.90;;;;;;5041160;28;20040;-69
2022/09/13 03:11:19;;;;;;;7.50;2.65;;;25.60;99.90;;;;;;5041062;28;20041;-69
2022/09/13 03:14:14;;;;;;;6.63;2.03;;;25.60;99.90;;;;;;5034114;28;20199;-69
2022/09/13 03:16:51;;;;;;;7.07;2.72;;;25.60;99.90;;;;;;5040520;28;20492;-70
2022/09/13 03:19:40;;;;;;;10.13;3.55;;;25.50;99.90;;;;;;5035618;28;20114;-69
2022/09/13 03:22:38;;;;;;;6.78;2.65;;;25.50;99.90;;;;;;5034614;28;20055;-69
2022/09/13 03:25:07;;;;;;;8.52;2.97;;;25.40;99.90;;;;;;5026346;28;20029;-68
2022/09/13 03:27:54;;;;;;;12.20;3.17;;;25.50;99.90;;;;;;5039133;28;20041;-69
2022/09/13 03:30:20;;;;;;;9.75;3.30;;;25.50;99.90;;;;;;5045139;28;20030;-69
2022/09/13 03:33:02;;;;;;;11.00;3.60;;;25.40;99.90;;;;;;5035009;28;20042;-70
2022/09/13 03:35:43;;;;;;;8.63;3.00;;;25.50;99.90;;;;;;5033991;28;20064;-69
2022/09/13 03:38:16;;;;;;;9.73;3.38;;;25.50;99.90;;;;;;5035262;28;20149;-69
2022/09/13 03:40:51;;;;;;;9.57;3.40;;;25.50;99.90;;;;;;5033102;28;20029;-68
2022/09/13 03:43:41;;;;;;;8.50;2.72;;;25.50;99.90;;;;;;5035252;28;20048;-68
2022/09/13 03:46:40;;;;;;;11.32;3.67;;;25.50;99.90;;;;;;5044051;28;20037;-68
2022/09/13 03:49:18;;;;;;;9.25;3.05;;;25.50;99.90;;;;;;5030771;28;20535;-68
2022/09/13 03:51:46;;;;;;;7.22;2.90;;;25.50;99.90;;;;;;5034147;28;20037;-70
2022/09/13 03:54:24;;;;;;;7.95;2.92;;;25.60;99.90;;;;;;5052582;28;20029;-69
2022/09/13 03:57:14;;;;;;;8.20;3.00;;;25.60;99.90;;;;;;5035946;28;20026;-69
2022/09/13 03:59:54;;;;;;;8.07;2.85;;;25.60;99.90;;;;;;5040021;28;20025;-70
2022/09/13 04:02:22;;;;;;;7.43;2.90;;;25.60;99.90;;;;;;5038467;28;20029;-69
2022/09/13 04:04:48;;;;;;;8.90;2.75;;;25.60;99.90;;;;;;5037096;28;20034;-69
2022/09/13 04:07:19;;;;;;;10.32;2.80;;;25.60;99.90;;;;;;5034955;28;20037;-68
2022/09/13 04:09:45;;;;;;;10.35;3.10;;;25.60;99.90;;;;;;5036712;28;20044;-69
2022/09/13 04:12:13;;;;;;;6.00;2.72;;;25.60;99.90;;;;;;5035330;28;20489;-69
2022/09/13 04:14:41;;;;;;;10.93;2.70;;;25.60;99.90;;;;;;5032863;28;20032;-68
2022/09/13 04:17:07;;;;;;;11.07;2.97;;;25.60;99.90;;;;;;5032697;28;20510;-69
2022/09/13 04:19:33;;;;;;;10.65;2.90;;;25.60;99.90;;;;;;5033703;28;20041;-68
2022/09/13 04:21:59;;;;;;;10.90;3.00;;;25.60;99.90;;;;;;5042301;28;20052;-69
2022/09/13 04:24:26;;;;;;;10.75;3.47;;;25.60;99.90;;;;;;5037420;28;20116;-68
2022/09/13 04:26:53;;;;;;;10.43;2.72;;;25.60;99.90;;;;;;5034110;28;20033;-69
2022/09/13 04:29:21;;;;;;;7.72;2.40;;;25.60;99.90;;;;;;5036566;28;20037;-68
2022/09/13 04:31:48;;;;;;;10.13;2.42;;;25.60;99.90;;;;;;5037666;28;20040;-69
2022/09/13 04:34:14;;;;;;;7.80;2.50;;;25.60;99.90;;;;;;5032982;28;20060;-69
2022/09/13 04:36:40;;;;;;;10.45;2.67;;;25.50;99.90;;;;;;5034120;28;20491;-69
2022/09/13 04:39:06;;;;;;;14.80;3.33;;;25.50;99.90;;;;;;5039586;28;20049;-69
2022/09/13 04:41:33;;;;;;;9.15;2.47;;;25.50;99.90;;;;;;5033622;28;20029;-72
2022/09/13 04:44:00;;;;;;;8.45;3.20;;;25.50;99.90;;;;;;5032802;28;20048;-68
2022/09/13 04:46:26;;;;;;;9.05;3.00;;;25.50;99.90;;;;;;5036798;28;20056;-71
2022/09/13 04:48:52;;;;;;;9.95;2.90;;;25.40;99.90;;;;;;5038766;28;20025;-70
2022/09/13 04:51:18;;;;;;;10.63;2.90;;;25.50;99.90;;;;;;5033267;28;20045;-69
2022/09/13 04:53:45;;;;;;;9.10;2.78;;;25.50;99.90;;;;;;5034391;28;20634;-69
2022/09/13 04:56:13;;;;;;;10.48;2.90;;;25.40;99.90;;;;;;5033012;28;20042;-69
2022/09/13 04:58:40;;;;;;;8.48;2.83;;;25.40;99.90;;;;;;5036021;28;20064;-69
2022/09/13 05:01:08;;;;;;;10.70;3.38;;;25.40;99.90;;;;;;5032379;28;20037;-70
2022/09/13 05:03:34;;;;;;;9.80;2.92;;;25.40;99.90;;;;;;5033266;28;20084;-69
2022/09/13 05:06:09;;;;;;;16.27;3.10;;;25.40;99.90;;;;;;5039523;28;20047;-69
2022/09/13 05:08:35;;;;;;;9.25;2.63;;;25.40;99.90;;;;;;5034667;28;20488;-68
2022/09/13 05:11:02;;;;;;;9.18;2.60;;;25.40;99.90;;;;;;5032933;28;20042;-70
2022/09/13 05:13:28;;;;;;;10.48;2.80;;;25.40;99.90;;;;;;5035792;28;20045;-69
2022/09/13 05:15:59;;;;;;;11.40;3.38;;;25.30;99.90;;;;;;5043568;28;20435;-68
2022/09/13 05:18:29;;;;;;;10.95;2.90;;;25.30;99.90;;;;;;5041504;28;20438;-68
2022/09/13 05:20:56;;;;;;;12.43;3.30;;;25.40;99.90;;;;;;5035910;28;20032;-71
2022/09/13 05:23:23;;;;;;;10.00;2.78;;;25.30;99.90;;;;;;5040391;28;21131;-69
2022/09/13 05:26:15;;;;;;;8.70;2.67;;;25.30;99.90;;;;;;5037259;28;20037;-70
2022/09/13 05:28:41;;;;;;;7.82;2.80;;;25.30;99.90;;;;;;5035095;28;20552;-69
2022/09/13 05:31:13;;;;;;;9.30;3.28;;;25.30;99.90;;;;;;5034168;28;20145;-69
2022/09/13 05:33:39;;;;;;;11.40;2.83;;;25.30;99.90;;;;;;5036569;28;20084;-71
2022/09/13 05:36:05;;;;;;;10.20;3.30;;;25.30;99.90;;;;;;5016788;28;20497;-71
2022/09/13 05:38:32;;;;;;;13.65;3.40;;;25.30;99.90;;;;;;5031480;28;20036;-69
2022/09/13 05:41:02;;;;;;;12.10;3.80;;;25.30;99.90;;;;;;5033008;28;20030;-68
2022/09/13 05:43:34;;;;;;;9.43;2.80;;;25.30;99.90;;;;;;5030512;28;20128;-70
2022/09/13 05:46:20;;;;;;;8.95;2.90;;;25.30;99.90;;;;;;5036798;28;20043;-69
2022/09/13 05:48:47;;;;;;;10.15;2.90;;;25.30;99.90;;;;;;5040070;28;20484;-69
2022/09/13 05:51:22;;;;;;;8.95;2.90;;;25.30;99.90;;;;;;5034085;28;20036;-69
2022/09/13 05:53:50;;;;;;;11.10;2.97;;;25.30;99.90;;;;;;5033747;28;20045;-69
2022/09/13 05:56:24;;;;;;;8.68;2.88;;;25.30;99.90;;;;;;5033546;28;20048;-70
2022/09/13 05:58:51;;;;;;;9.40;3.15;;;25.30;99.90;;;;;;5023979;28;20488;-69
2022/09/13 06:01:19;;;;;;;10.30;2.60;;;25.40;99.90;;;;;;5031454;28;20934;-70
2022/09/13 06:03:52;;;;;;;10.38;2.97;;;25.40;99.90;;;;;;5031609;28;20124;-70
2022/09/13 06:06:18;;;;;;;12.38;2.70;;;25.50;99.90;;;;;;5030662;28;20397;-69
2022/09/13 06:08:45;;;;;;;8.73;2.90;;;25.50;99.90;;;;;;5030503;28;20033;-70
2022/09/13 06:11:12;;;;;;;7.03;2.63;;;25.50;99.90;;;;;;5035022;28;20129;-70
2022/09/13 06:13:38;;;;;;;8.93;2.63;;;25.50;99.90;;;;;;5041481;28;20381;-69
2022/09/13 06:16:08;;;;;;;12.57;4.00;;;25.60;99.90;;;;;;5031270;28;20045;-69
2022/09/13 06:18:35;;;;;;;9.98;3.28;;;25.60;99.90;;;;;;5033609;28;20048;-69
2022/09/13 06:21:06;;;;;;;9.93;2.60;;;25.60;99.90;;;;;;5036264;28;20547;-70
2022/09/13 06:23:32;;;;;;;11.18;2.90;;;25.70;99.90;;;;;;5028453;28;20030;-71
2022/09/13 06:26:10;;;;;;;10.52;2.60;;;25.70;99.90;;;;;;5035205;28;20037;-69
2022/09/13 06:28:36;;;;;;;10.68;3.10;;;25.70;99.90;;;;;;5041601;28;20037;-70
2022/09/13 06:31:06;;;;;;;7.05;2.53;;;25.80;99.90;;;;;;5033800;28;20037;-70
2022/09/13 06:33:33;;;;;;;11.82;2.83;;;25.90;99.90;;;;;;5017354;28;20501;-69
2022/09/13 06:36:04;;;;;;;7.55;2.60;;;25.90;99.90;;;;;;5031956;28;20035;-69
2022/09/13 06:38:29;;;;;;;10.88;2.67;;;25.90;99.90;;;;;;5043202;28;20373;-69
2022/09/13 06:41:03;;;;;;;12.13;2.95;;;26.00;99.90;;;;;;5036467;28;20033;-69
2022/09/13 06:43:29;;;;;;;7.70;2.65;;;26.00;99.90;;;;;;5035148;28;20048;-70
2022/09/13 06:46:12;;;;;;;13.35;3.47;;;26.00;99.90;;;;;;5036103;28;20072;-70
2022/09/13 06:48:41;;;;;;;10.27;2.90;;;26.00;99.90;;;;;;5023060;28;20033;-70
2022/09/13 06:51:10;;;;;;;7.95;2.20;;;26.10;99.90;;;;;;5033792;28;20049;-69
2022/09/13 06:53:37;;;;;;;9.68;3.08;;;26.10;99.90;;;;;;5027362;28;20044;-69
2022/09/13 06:56:12;;;;;;;12.25;2.78;;;26.30;99.90;;;;;;5038536;28;20045;-70
2022/09/13 06:58:39;;;;;;;10.77;3.00;;;26.30;99.90;;;;;;5035570;28;20385;-70
2022/09/13 07:01:13;;;;;;;12.13;3.03;;;26.40;99.90;;;;;;5035412;28;20103;-69
2022/09/13 07:03:50;;;;;;;9.73;2.80;;;26.40;99.90;;;;;;5029515;28;20065;-68
2022/09/13 07:06:23;;;;;;;15.25;3.28;;;26.50;99.90;;;;;;5016861;28;20141;-69
2022/09/13 07:08:50;;;;;;;9.98;2.67;;;26.50;99.90;;;;;;5032382;28;20496;-70
2022/09/13 07:11:18;;;;;;;10.90;3.47;;;26.60;99.90;;;;;;5033694;28;20042;-70
2022/09/13 07:13:49;;;;;;;12.13;2.55;;;26.60;99.90;;;;;;5043296;28;20033;-71
2022/09/13 07:16:16;;;;;;;10.23;2.70;;;26.70;99.90;;;;;;5037048;28;20047;-71
2022/09/13 07:18:42;;;;;;;13.23;2.70;;;26.80;99.90;;;;;;5040480;28;20043;-70
2022/09/13 07:21:10;;;;;;;9.00;2.50;;;26.90;99.90;;;;;;5037840;28;20037;-70
2022/09/13 07:23:37;;;;;;;12.02;2.95;;;27.10;99.90;;;;;;5040234;28;20040;-69
2022/09/13 07:26:05;;;;;;;11.07;2.83;;;27.10;99.90;;;;;;5036267;28;20041;-72
2022/09/13 07:28:46;;;;;;;11.98;2.80;;;27.10;99.90;;;;;;5043519;28;20037;-70
2022/09/13 07:31:15;;;;;;;14.43;2.88;;;27.20;99.90;;;;;;5038537;28;20133;-70
2022/09/13 07:33:42;;;;;;;10.75;3.20;;;27.40;99.90;;;;;;5040818;28;20481;-71
2022/09/13 07:36:10;;;;;;;10.52;2.67;;;27.50;99.90;;;;;;5035179;28;20033;-69
2022/09/13 07:38:44;;;;;;;8.27;2.03;;;27.70;99.90;;;;;;5037033;28;20104;-69
2022/09/13 07:41:12;;;;;;;9.82;2.60;;;27.90;99.90;;;;;;5035886;28;20037;-70
2022/09/13 07:43:38;;;;;;;11.27;3.15;;;28.20;99.90;;;;;;5035643;28;20036;-70
2022/09/13 07:46:10;;;;;;;12.48;2.55;;;28.30;99.90;;;;;;5038104;28;20056;-69
2022/09/13 07:48:38;;;;;;;11.30;2.60;;;28.30;99.90;;;;;;5037453;28;21049;-71
2022/09/13 07:51:12;;;;;;;8.13;2.80;;;28.40;99.90;;;;;;5034254;28;20510;-71
2022/09/13 07:53:39;;;;;;;11.73;2.95;;;28.30;99.90;;;;;;5040348;28;20057;-69
2022/09/13 07:56:08;;;;;;;11.93;2.95;;;28.20;99.90;;;;;;5033340;28;20548;-71
2022/09/13 07:58:36;;;;;;;8.40;2.75;;;28.10;99.90;;;;;;5021644;28;20037;-70
2022/09/13 08:01:04;;;;;;;10.52;2.78;;;28.00;99.90;;;;;;5038182;28;20121;-69
2022/09/13 08:03:32;;;;;;;10.40;2.60;;;27.70;99.90;;;;;;5040205;28;20037;-70
2022/09/13 08:05:58;;;;;;;11.90;2.50;;;27.60;99.90;;;;;;5036337;28;20033;-69
2022/09/13 08:08:23;;;;;;;13.93;2.88;;;27.60;99.90;;;;;;5034472;28;20152;-70
2022/09/13 08:10:49;;;;;;;9.15;2.38;;;27.40;99.90;;;;;;5034231;28;20032;-68
2022/09/13 08:13:16;;;;;;;11.25;2.58;;;27.30;99.90;;;;;;5035554;28;20037;-70
2022/09/13 08:15:42;;;;;;;9.60;2.47;;;27.40;99.90;;;;;;5033166;28;20033;-70
2022/09/13 08:18:08;;;;;;;12.68;2.38;;;27.40;99.90;;;;;;5022947;28;20536;-70
2022/09/13 08:20:38;;;;;;;12.10;2.53;;;27.40;99.90;;;;;;5037764;28;20082;-69
2022/09/13 08:23:06;;;;;;;8.90;2.60;;;27.40;99.90;;;;;;5033971;28;20041;-69
2022/09/13 08:25:33;;;;;;;8.48;2.45;;;27.30;99.90;;;;;;5032792;28;20026;-71
2022/09/13 08:28:12;;;;;;;8.98;3.05;;;27.20;99.90;;;;;;5018486;28;20025;-70
2022/09/13 08:30:38;;;;;;;10.55;3.03;;;27.10;99.90;;;;;;5033147;28;20036;-70
2022/09/13 08:33:04;;;;;;;10.85;2.90;;;27.10;99.90;;;;;;5032914;28;20044;-70
2022/09/13 08:35:30;;;;;;;10.73;2.85;;;27.00;99.90;;;;;;5036311;28;20071;-69
2022/09/13 08:37:56;;;;;;;13.75;3.10;;;27.20;99.90;;;;;;5036919;28;20103;-71
2022/09/13 08:40:26;;;;;;;14.77;3.47;;;27.10;99.90;;;;;;5023405;28;20060;-70
2022/09/13 08:43:04;;;;;;;10.65;3.00;;;27.10;99.90;;;;;;5038191;28;20685;-70
2022/09/13 08:45:30;;;;;;;12.15;2.92;;;27.00;99.90;;;;;;5031848;28;20036;-70
2022/09/13 08:48:01;;;;;;;13.13;2.85;;;27.20;99.90;;;;;;5037055;28;20025;-69
2022/09/13 08:50:32;;;;;;;9.77;3.15;;;27.30;99.90;;;;;;5036883;28;20068;-71
2022/09/13 08:53:08;;;;;;;7.93;3.13;;;27.60;99.90;;;;;;5039157;28;20029;-69
2022/09/13 08:56:06;;;;;;;9.80;3.20;;;27.80;99.90;;;;;;5032578;28;20040;-71
2022/09/13 08:58:43;;;;;;;11.38;3.17;;;27.90;99.90;;;;;;5031265;28;20048;-69
2022/09/13 09:01:41;;;;;;;13.32;3.90;;;28.10;99.90;;;;;;5035291;28;20520;-70
2022/09/13 09:04:25;;;;;;;16.33;3.10;;;28.20;99.90;;;;;;5036294;28;20041;-69
2022/09/13 09:07:11;;;;;;;14.32;3.58;;;28.40;99.90;;;;;;5030209;28;20619;-69
2022/09/13 09:09:48;;;;;;;13.93;3.35;;;28.40;99.90;;;;;;5031655;28;20029;-69
2022/09/13 09:12:21;;;;;;;13.05;3.20;;;28.50;99.90;;;;;;5031808;28;20045;-70
2022/09/13 09:15:03;;;;;;;12.60;3.10;;;28.70;99.90;;;;;;5030494;28;20044;-70
2022/09/13 09:17:41;;;;;;;10.37;2.50;;;28.90;99.90;;;;;;5046033;28;20048;-70
2022/09/13 09:20:27;;;;;;;14.20;2.80;;;29.30;99.90;;;;;;5034021;28;20034;-69
2022/09/13 09:22:54;;;;;;;8.65;2.40;;;29.50;99.90;;;;;;5029772;28;20560;-73
2022/09/13 09:25:23;;;;;;;11.65;2.42;;;29.60;99.90;;;;;;5029970;28;20030;-70
2022/09/13 09:27:52;;;;;;;12.45;2.90;;;29.70;99.90;;;;;;5034761;28;20029;-70
2022/09/13 09:30:18;;;;;;;7.32;2.20;;;29.90;99.90;;;;;;5040472;28;20060;-70
2022/09/13 09:33:19;;;;;;;9.15;2.20;;;29.90;99.90;;;;;;5035902;28;20034;-70
2022/09/13 09:35:50;;;;;;;7.43;2.42;;;30.00;99.90;;;;;;5036979;28;20796;-69
2022/09/13 09:38:31;;;;;;;10.57;2.53;;;30.20;99.90;;;;;;5031855;28;20037;-72
2022/09/13 09:41:05;;;;;;;8.25;2.47;;;30.40;99.90;;;;;;5032778;28;20580;-70
2022/09/13 09:43:39;;;;;;;12.60;3.17;;;30.30;99.90;;;;;;5037651;28;20108;-70
2022/09/13 09:46:08;;;;;;;12.60;2.90;;;30.40;99.90;;;;;;5039214;28;20059;-68
2022/09/13 09:48:43;;;;;;;16.20;2.90;;;30.40;99.90;;;;;;5032740;28;20029;-70
2022/09/13 09:51:11;;;;;;;13.32;3.50;;;30.60;99.90;;;;;;5035511;28;20430;-70
2022/09/13 09:53:43;;;;;;;15.48;3.38;;;30.80;99.90;;;;;;5034188;28;20029;-71
2022/09/13 09:56:22;;;;;;;10.75;3.35;;;31.00;99.90;;;;;;5032815;28;20651;-69
2022/09/13 09:58:49;;;;;;;10.68;3.35;;;31.00;99.90;;;;;;5036552;28;20496;-71
2022/09/13 10:01:33;;;;;;;11.52;3.47;;;30.90;99.90;;;;;;5041105;28;20033;-69
2022/09/13 10:04:02;;;;;;;9.90;3.85;;;31.20;99.90;;;;;;5033964;28;20040;-70
2022/09/13 10:06:29;;;;;;;9.15;2.90;;;31.50;99.90;;;;;;5034112;28;20528;-71
2022/09/13 10:08:59;;;;;;;10.57;2.58;;;31.50;99.90;;;;;;5033837;28;20106;-70
2022/09/13 10:11:50;;;;;;;8.80;2.60;;;31.60;99.90;;;;;;5030985;28;20030;-70
2022/09/13 10:14:28;;;;;;;;;;;31.70;99.90;;;;;;5028848;28;20505;-70
2022/09/13 10:17:20;;;;;;;14.07;2.65;;;31.50;99.90;;;;;;5033691;28;20309;-70
2022/09/13 10:19:53;;;;;;;11.02;2.88;;;30.40;99.90;;;;;;5032973;28;20029;-69
2022/09/13 10:22:19;;;;;;;15.15;3.00;;;30.10;99.90;;;;;;5033894;28;20043;-69
2022/09/13 10:24:45;;;;;;;14.35;2.88;;;29.80;99.90;;;;;;5031250;28;20033;-70
2022/09/13 10:27:38;;;;;;;8.80;2.60;;;29.80;99.90;;;;;;5034131;28;20034;-69
2022/09/13 10:30:05;;;;;;;11.27;1.92;;;30.10;99.90;;;;;;5027032;28;20069;-69
2022/09/13 10:32:32;;;;;;;12.75;2.58;;;30.30;99.90;;;;;;5039078;28;20029;-70
2022/09/13 10:35:15;;;;;;;10.55;2.15;;;30.20;99.90;;;;;;5031788;28;20424;-71
2022/09/13 10:37:43;;;;;;;7.30;2.30;;;30.30;99.90;;;;;;5036743;28;20029;-69
2022/09/13 10:40:25;;;;;;;10.27;2.55;;;30.50;99.90;;;;;;5045900;28;20030;-70
2022/09/13 10:42:57;;;;;;;15.20;2.50;;;30.50;99.90;;;;;;5035165;28;20021;-70
2022/09/13 10:45:26;;;;;;;7.93;2.05;;;30.60;99.90;;;;;;5018319;28;20186;-69
2022/09/13 10:47:56;;;;;;;11.93;2.20;;;30.80;99.90;;;;;;5034788;28;20031;-69
2022/09/13 10:50:27;;;;;;;8.88;2.65;;;31.10;99.90;;;;;;5030753;28;20032;-70
2022/09/13 10:52:55;;;;;;;11.75;2.15;;;31.00;99.90;;;;;;5036520;28;20030;-69
2022/09/13 10:55:25;;;;;;;8.10;2.15;;;31.20;99.90;;;;;;5029616;28;20441;-71
2022/09/13 10:57:53;;;;;;;9.90;2.20;;;31.40;99.90;;;;;;5044214;28;20028;-70
2022/09/13 11:00:21;;;;;;;9.20;2.60;;;31.60;99.90;;;;;;5040021;28;20048;-69
2022/09/13 11:03:24;;;;;;;13.25;2.30;;;31.50;99.20;;;;;;5042361;28;20030;-70
2022/09/13 11:06:01;;;;;;;14.25;2.75;;;32.00;99.10;;;;;;5034209;28;20203;-71
2022/09/13 11:08:38;;;;;;;11.48;2.38;;;32.50;98.50;;;;;;5035633;28;20120;-70
2022/09/13 11:11:29;;;;;;;13.32;2.85;;;32.20;98.30;;;;;;5035530;28;20511;-70
2022/09/13 11:14:06;;;;;;;7.65;2.15;;;32.20;98.10;;;;;;5035593;28;20564;-68
2022/09/13 11:16:56;;;;;;;9.48;2.08;;;32.20;98.10;;;;;;5037051;28;20053;-71
2022/09/13 11:19:40;;;;;;;11.98;2.13;;;32.60;97.80;;;;;;5022870;28;20049;-70
2022/09/13 11:22:24;;;;;;;6.53;2.03;;;32.60;97.60;;;;;;5039223;28;20176;-72
2022/09/13 11:25:03;;;;;;;7.45;2.28;;;32.50;97.80;;;;;;5038833;28;20084;-70
2022/09/13 11:27:50;;;;;;;7.88;2.42;;;32.10;97.70;;;;;;5039948;28;20056;-70
2022/09/13 11:30:22;;;;;;;8.98;2.67;;;31.90;97.80;;;;;;5036782;28;20037;-68
2022/09/13 11:33:21;;;;;;;10.05;2.55;;;31.70;98.10;;;;;;5021544;28;20068;-70
2022/09/13 11:36:26;;;;;;;7.68;2.50;;;31.30;97.90;;;;;;5038461;28;20040;-70
2022/09/13 11:39:04;;;;;;;11.25;2.50;;;31.50;98.10;;;;;;5028019;28;20049;-69
2022/09/13 11:41:42;;;;;;;13.52;2.67;;;31.20;97.90;;;;;;5036836;28;20099;-70
2022/09/13 11:44:23;;;;;;;10.27;2.53;;;31.30;98.00;;;;;;5036221;28;20034;-70
2022/09/13 11:47:17;;;;;;;8.15;2.22;;;31.50;97.70;;;;;;5018998;28;20045;-69
2022/09/13 11:50:16;;;;;;;8.27;2.15;;;31.50;97.10;;;;;;5037066;28;20369;-71
2022/09/13 11:52:42;;;;;;;8.05;2.28;;;31.20;96.70;;;;;;5035905;28;20033;-70
2022/09/13 11:55:27;;;;;;;9.15;2.00;;;31.50;96.70;;;;;;5042307;28;20032;-71
2022/09/13 11:57:55;;;;;;;9.35;2.38;;;31.40;96.50;;;;;;5035194;28;20108;-69
2022/09/13 12:00:24;;;;;;;8.20;1.90;;;31.20;96.60;;;;;;5037528;28;20029;-71
2022/09/13 12:03:04;;;;;;;10.43;2.03;;;31.00;96.90;;;;;;5034130;28;20071;-71
2022/09/13 12:06:05;;;;;;;12.15;2.20;;;31.00;97.00;;;;;;5035243;28;20032;-71
2022/09/13 12:08:39;;;;;;;11.32;2.22;;;30.70;97.00;;;;;;5012975;28;20037;-70
2022/09/13 12:11:37;;;;;;;5.63;1.70;;;30.60;97.20;;;;;;5031851;28;20030;-70
2022/09/13 12:14:06;;;;;;;11.68;2.08;;;30.50;97.20;;;;;;5036262;28;20480;-70
2022/09/13 12:16:51;;;;;;;6.07;1.50;;;30.50;97.00;;;;;;5036734;28;20033;-70
2022/09/13 12:19:25;;;;;;;10.63;1.70;;;30.30;96.70;;;;;;5043348;28;20623;-70
2022/09/13 12:21:56;;;;;;;11.02;1.80;;;30.30;96.40;;;;;;5035225;28;20037;-71
2022/09/13 12:24:42;;;;;;;7.75;1.42;;;30.20;96.10;;;;;;5031268;28;20049;-72
2022/09/13 12:27:22;;;;;;;8.88;1.45;;;30.00;96.00;;;;;;5035040;28;20082;-71
2022/09/13 12:29:53;;;;;;;9.10;1.85;;;30.00;95.90;;;;;;5035499;28;20049;-71
2022/09/13 12:32:19;;;;;;;5.60;1.20;;;30.10;96.10;;;;;;5035037;28;20033;-70
2022/09/13 12:34:47;;;;;;;9.02;1.75;;;30.00;95.60;;;;;;5033987;28;20037;-70
2022/09/13 12:37:41;;;;;;;6.60;1.65;;;30.00;95.80;;;;;;5023139;28;20403;-70
2022/09/13 12:40:44;;;;;;;5.78;1.48;;;30.10;95.80;;;;;;5034964;28;20048;-71
2022/09/13 12:43:42;;;;;;;7.85;1.90;;;30.20;95.90;;;;;;5035648;28;20448;-72
2022/09/13 12:46:27;;;;;;;5.95;1.67;;;30.20;95.90;;;;;;5035632;28;20038;-69
2022/09/13 12:49:19;;;;;;;10.52;1.50;;;30.40;96.00;;;;;;5040309;28;20048;-71
2022/09/13 12:51:58;;;;;;;10.00;2.28;;;30.30;96.10;;;;;;5034951;28;20505;-71
2022/09/13 12:54:35;;;;;;;6.28;1.52;;;30.30;96.30;;;;;;5031462;28;20497;-71
2022/09/13 12:57:13;;;;;;;8.85;1.73;;;30.40;96.40;;;;;;5032157;28;20029;-72
2022/09/13 12:59:57;;;;;;;7.65;1.60;;;30.20;96.50;;;;;;5032964;28;20041;-73
2022/09/13 13:02:26;;;;;;;6.78;1.17;;;30.20;96.70;;;;;;5033481;28;20128;-71
2022/09/13 13:04:59;;;;;;;6.97;1.33;;;30.20;96.60;;;;;;5038736;28;20144;-71
2022/09/13 13:07:26;;;;;;;6.93;1.40;;;30.00;96.70;;;;;;5035113;28;20535;-71
2022/09/13 13:09:55;;;;;;;7.93;1.92;;;30.10;96.50;;;;;;5033475;28;20040;-69
2022/09/13 13:12:36;;;;;;;7.60;1.95;;;30.10;96.40;;;;;;5034924;28;20064;-70
2022/09/13 13:15:26;;;;;;;8.73;1.30;;;30.00;96.40;;;;;;5035919;28;20053;-69
2022/09/13 13:17:56;;;;;;;8.40;2.05;;;30.20;96.50;;;;;;5022968;28;20127;-71
2022/09/13 13:20:56;;;;;;;6.22;1.42;;;30.20;96.20;;;;;;5030266;28;20040;-71